Time;durP1;ratioP1;P1;durP2;ratioP2;P2;SDS_P1;SDS_P2;PMS_P1;PMS_P2;Temp;Humidity;BMP_temperature;BMP_pressure;BME280_temperature;BME280_humidity;BME280_pressure;Samples;Min_cycle;Max_cycle;Signal;HPM_P1;HPM_P2
2023/04/22 00:01:29;;;;;;;5.32;2.53;;;;;;;12.70;72.52;99965.81;4102066;28;20047;-76
2023/04/22 00:03:32;;;;;;;3.67;2.70;;;;;;;12.70;72.65;99963.22;4144658;28;20041;-77
2023/04/22 00:05:36;;;;;;;4.70;2.95;;;;;;;12.70;72.45;99963.22;4131622;28;20107;-77
2023/04/22 00:07:41;;;;;;;3.55;2.80;;;;;;;12.69;72.53;99964.09;4136783;28;20049;-76
2023/04/22 00:09:44;;;;;;;5.18;3.40;;;;;;;12.69;72.52;99967.56;4116491;28;20127;-77
2023/04/22 00:11:49;;;;;;;9.07;4.30;;;;;;;12.68;72.47;99964.97;4107645;28;20514;-77
2023/04/22 00:13:52;;;;;;;9.65;5.43;;;;;;;12.66;72.61;99956.25;4109799;28;20113;-77
2023/04/22 00:15:54;;;;;;;9.63;6.82;;;;;;;12.65;72.72;99952.78;4137918;28;20045;-76
2023/04/22 00:17:58;;;;;;;13.10;8.07;;;;;;;12.67;73.07;99968.44;4140583;28;20048;-76
2023/04/22 00:20:02;;;;;;;13.60;6.70;;;;;;;12.65;72.81;99967.59;4140073;28;20041;-76
2023/04/22 00:22:05;;;;;;;10.57;6.05;;;;;;;12.65;72.83;99959.75;4123725;28;20304;-76
2023/04/22 00:24:08;;;;;;;9.60;6.07;;;;;;;12.65;72.73;99965.84;4128977;28;20037;-77
2023/04/22 00:26:11;;;;;;;10.23;6.70;;;;;;;12.64;72.74;99955.41;4123164;28;20509;-76
2023/04/22 00:28:16;;;;;;;11.00;5.47;;;;;;;12.64;72.82;99958.88;4136566;28;20400;-76
2023/04/22 00:30:19;;;;;;;11.00;5.50;;;;;;;12.61;72.79;99952.81;4122858;28;20485;-76
2023/04/22 00:32:22;;;;;;;8.93;4.82;;;;;;;12.62;72.76;99952.81;4122973;28;20066;-76
2023/04/22 00:34:26;;;;;;;8.77;5.32;;;;;;;12.61;72.71;99953.66;4136613;28;20129;-75
2023/04/22 00:36:30;;;;;;;8.13;4.70;;;;;;;12.55;72.89;99954.53;4125484;28;20048;-77
2023/04/22 00:38:33;;;;;;;9.77;4.85;;;;;;;12.54;73.08;99951.94;4146211;28;20124;-75
2023/04/22 00:40:36;;;;;;;11.13;6.00;;;;;;;12.53;73.15;99950.22;4122647;28;20043;-76
2023/04/22 00:42:39;;;;;;;8.00;5.07;;;;;;;12.51;73.09;99937.19;4131611;28;20057;-77
2023/04/22 00:44:46;;;;;;;6.80;4.40;;;;;;;12.53;73.47;99937.19;4116664;28;20097;-76
2023/04/22 00:46:49;;;;;;;7.97;5.30;;;;;;;12.54;73.34;99944.13;4148784;28;20096;-76
2023/04/22 00:48:52;;;;;;;6.47;4.43;;;;;;;12.54;73.71;99945.00;4138238;28;20038;-76
2023/04/22 00:50:55;;;;;;;7.10;4.75;;;;;;;12.53;73.08;99943.25;4131796;28;20060;-76
2023/04/22 00:52:58;;;;;;;8.52;4.65;;;;;;;12.52;73.17;99941.53;4131937;28;20133;-76
2023/04/22 00:55:02;;;;;;;8.02;4.20;;;;;;;12.51;73.25;99939.81;4132572;28;20070;-76
2023/04/22 00:57:05;;;;;;;6.80;4.30;;;;;;;12.47;73.47;99929.34;4115018;28;20520;-76
2023/04/22 00:59:10;;;;;;;5.93;3.88;;;;;;;12.46;73.58;99930.25;4115160;28;20043;-76
2023/04/22 01:01:15;;;;;;;6.28;3.95;;;;;;;12.43;73.41;99935.47;4119207;28;20126;-76
2023/04/22 01:03:19;;;;;;;;;;;;;;;12.33;73.58;99932.00;4114693;28;20043;-75
2023/04/22 01:05:23;;;;;;;6.65;4.30;;;;;;;12.32;74.00;99931.13;4116259;28;20434;-76
2023/04/22 01:07:26;;;;;;;7.53;4.95;;;;;;;12.32;74.06;99932.88;4114893;28;20038;-76
2023/04/22 01:09:30;;;;;;;8.93;4.25;;;;;;;12.32;73.90;99936.34;4098902;29;20050;-76
2023/04/22 01:11:34;;;;;;;6.85;3.60;;;;;;;12.35;73.50;99938.97;4116071;28;20039;-76
2023/04/22 01:13:37;;;;;;;5.38;3.97;;;;;;;12.36;73.37;99942.44;4098229;28;20070;-75
2023/04/22 01:15:40;;;;;;;6.63;3.40;;;;;;;12.33;73.90;99950.25;4123911;28;20049;-75
2023/04/22 01:17:45;;;;;;;5.55;3.25;;;;;;;12.33;73.48;99950.25;4134812;28;20069;-76
2023/04/22 01:19:48;;;;;;;5.57;3.72;;;;;;;12.29;74.03;99956.34;4114930;28;20038;-76
2023/04/22 01:21:53;;;;;;;4.53;3.22;;;;;;;12.23;73.77;99958.06;4109684;28;20107;-76
2023/04/22 01:23:57;;;;;;;5.57;3.03;;;;;;;12.19;73.87;99956.34;4115177;28;20094;-76
2023/04/22 01:26:00;;;;;;;5.85;3.85;;;;;;;12.18;73.84;99962.44;4083074;29;20469;-76
2023/04/22 01:28:03;;;;;;;7.95;3.33;;;;;;;12.19;74.02;99966.78;4115845;28;20058;-76
2023/04/22 01:30:08;;;;;;;5.43;3.00;;;;;;;12.22;74.25;99958.94;4116226;28;20134;-76
2023/04/22 01:32:14;;;;;;;6.50;3.55;;;;;;;12.23;74.22;99962.41;4098425;29;20417;-77
2023/04/22 01:34:17;;;;;;;3.97;2.72;;;;;;;12.26;74.17;99958.94;4130649;28;20030;-76
2023/04/22 01:36:21;;;;;;;4.95;3.60;;;;;;;12.27;74.09;99961.56;4121965;28;20504;-76
2023/04/22 01:38:24;;;;;;;5.32;3.38;;;;;;;12.27;74.11;99951.13;4112380;28;20098;-76
2023/04/22 01:40:29;;;;;;;5.15;3.00;;;;;;;12.27;73.89;99947.66;4123136;28;20042;-76
2023/04/22 01:42:33;;;;;;;6.10;2.80;;;;;;;12.26;74.51;99956.34;4134158;28;20558;-77
2023/04/22 01:44:36;;;;;;;5.20;3.20;;;;;;;12.23;74.23;99950.25;4138101;28;20044;-76
2023/04/22 01:46:39;;;;;;;6.20;2.85;;;;;;;12.25;74.10;99952.88;4107100;28;20040;-76
2023/04/22 01:48:42;;;;;;;6.55;3.55;;;;;;;12.22;74.33;99951.13;4121902;28;20463;-76
2023/04/22 01:50:45;;;;;;;7.70;3.60;;;;;;;12.22;74.33;99951.13;4128995;28;20165;-76
2023/04/22 01:52:49;;;;;;;5.72;3.90;;;;;;;12.22;74.08;99956.34;4120554;28;20046;-76
2023/04/22 01:54:52;;;;;;;6.15;3.40;;;;;;;12.18;74.29;99952.00;4139007;28;20056;-75
2023/04/22 01:56:57;;;;;;;9.40;3.05;;;;;;;12.13;74.77;99950.25;4118618;28;20039;-76
2023/04/22 01:59:00;;;;;;;4.78;3.20;;;;;;;12.08;74.82;99941.59;4101478;28;20043;-76
2023/04/22 02:01:10;;;;;;;4.88;3.25;;;;;;;12.07;74.53;99940.72;4099641;28;20466;-76
2023/04/22 02:03:13;;;;;;;5.10;3.55;;;;;;;12.05;74.83;99948.53;4119122;28;20042;-76
2023/04/22 02:05:18;;;;;;;5.30;3.30;;;;;;;12.05;74.55;99945.91;4138586;28;20381;-75
2023/04/22 02:07:21;;;;;;;5.22;3.80;;;;;;;12.03;74.82;99952.00;4116090;28;20053;-76
2023/04/22 02:09:24;;;;;;;7.53;3.97;;;;;;;12.04;74.87;99948.53;4137520;28;20065;-75
2023/04/22 02:11:27;;;;;;;5.90;3.45;;;;;;;12.00;74.70;99949.38;4126614;28;20129;-76
2023/04/22 02:13:36;;;;;;;5.55;3.92;;;;;;;12.02;74.89;99945.94;4120591;28;20497;-76
2023/04/22 02:15:40;;;;;;;5.22;3.58;;;;;;;12.01;74.77;99944.19;4121729;28;20126;-76
2023/04/22 02:17:43;;;;;;;5.32;3.40;;;;;;;12.00;75.16;99949.38;4114264;28;20050;-76
2023/04/22 02:19:47;;;;;;;5.20;3.50;;;;;;;11.98;75.05;99945.94;4140592;28;20412;-76
2023/04/22 02:21:50;;;;;;;7.47;3.40;;;;;;;11.98;75.10;99948.53;4123877;28;20134;-76
2023/04/22 02:23:52;;;;;;;6.75;3.80;;;;;;;12.00;74.61;99954.59;4105749;28;20046;-76
2023/04/22 02:25:55;;;;;;;9.27;3.63;;;;;;;12.01;74.74;99951.13;4137908;28;20038;-76
2023/04/22 02:27:58;;;;;;;4.82;3.38;;;;;;;12.01;75.10;99958.94;4121339;28;20042;-76
2023/04/22 02:30:03;;;;;;;7.32;3.58;;;;;;;12.01;74.56;99952.00;4117839;28;20046;-75
2023/04/22 02:32:06;;;;;;;9.18;4.32;;;;;;;12.00;74.88;99949.38;4136662;28;20550;-75
2023/04/22 02:34:09;;;;;;;7.80;4.03;;;;;;;11.98;75.12;99954.59;4139058;28;20535;-76
2023/04/22 02:36:12;;;;;;;6.22;4.40;;;;;;;11.99;74.92;99963.31;4134421;28;20070;-77
2023/04/22 02:38:15;;;;;;;6.85;4.40;;;;;;;11.97;75.31;99950.28;4138343;28;20061;-76
2023/04/22 02:40:18;;;;;;;6.07;4.18;;;;;;;11.98;75.22;99956.34;4123041;28;20504;-76
2023/04/22 02:42:21;;;;;;;8.13;3.97;;;;;;;11.99;74.80;99966.75;4115315;28;20039;-77
2023/04/22 02:44:24;;;;;;;8.35;4.10;;;;;;;11.99;75.28;99963.31;4121629;28;20073;-77
2023/04/22 02:46:28;;;;;;;5.05;3.45;;;;;;;11.98;74.86;99958.94;4122033;28;20125;-77
2023/04/22 02:48:31;;;;;;;5.50;3.58;;;;;;;11.96;75.21;99968.47;4137653;28;20096;-76
2023/04/22 02:50:34;;;;;;;6.13;4.28;;;;;;;12.00;74.84;99965.03;4128588;28;20412;-76
2023/04/22 02:52:37;;;;;;;9.73;3.90;;;;;;;11.99;74.72;99963.31;4120754;28;20055;-76
2023/04/22 02:54:40;;;;;;;8.15;3.75;;;;;;;12.01;74.57;99964.16;4121095;28;20035;-76
2023/04/22 02:56:43;;;;;;;5.28;4.07;;;;;;;12.03;74.78;99971.13;4134451;28;20080;-76
2023/04/22 02:58:46;;;;;;;5.85;3.90;;;;;;;12.02;74.79;99963.31;4125338;28;20125;-77
2023/04/22 03:00:49;;;;;;;8.18;4.35;;;;;;;12.03;74.34;99970.22;4121542;28;20034;-76
2023/04/22 03:02:53;;;;;;;6.45;3.92;;;;;;;12.03;74.43;99970.22;4122067;28;20053;-76
2023/04/22 03:05:01;;;;;;;7.00;4.13;;;;;;;12.02;74.35;99963.31;4121173;28;20038;-76
2023/04/22 03:07:05;;;;;;;5.63;3.88;;;;;;;11.99;74.59;99969.38;4102805;28;20089;-76
2023/04/22 03:09:10;;;;;;;6.45;4.50;;;;;;;11.97;74.81;99972.84;4119538;28;20431;-76
2023/04/22 03:11:13;;;;;;;7.45;3.60;;;;;;;11.96;74.58;99973.69;4122548;28;20042;-76
2023/04/22 03:13:17;;;;;;;6.00;3.60;;;;;;;11.93;74.98;99974.59;4120294;28;20413;-76
2023/04/22 03:15:20;;;;;;;7.78;3.75;;;;;;;11.92;74.60;99977.16;4138380;28;20061;-76
2023/04/22 03:17:24;;;;;;;8.60;5.15;;;;;;;11.87;75.22;99975.41;4115280;28;20039;-76
2023/04/22 03:19:29;;;;;;;6.32;4.88;;;;;;;11.90;74.45;99984.09;4108508;28;20078;-75
2023/04/22 03:21:32;;;;;;;;;;;;;;;11.79;75.27;99976.28;4121259;28;20060;-76
2023/04/22 03:23:36;;;;;;;7.70;4.25;;;;;;;11.78;74.86;99977.97;4127955;28;20292;-75
2023/04/22 03:25:39;;;;;;;8.02;4.97;;;;;;;11.79;75.59;99974.53;4123697;28;20030;-76
2023/04/22 03:27:43;;;;;;;6.82;4.78;;;;;;;11.77;75.19;99965.84;4116845;28;20129;-75
2023/04/22 03:29:45;;;;;;;8.43;4.80;;;;;;;11.82;75.24;99973.66;4109423;28;20127;-75
2023/04/22 03:31:48;;;;;;;6.00;3.90;;;;;;;11.80;74.97;99968.47;4134458;28;20073;-75
2023/04/22 03:33:52;;;;;;;12.55;4.50;;;;;;;11.78;75.10;99966.72;4121558;28;20183;-75
2023/04/22 03:36:02;;;;;;;7.88;5.10;;;;;;;11.75;74.86;99964.09;4127164;28;20438;-76
2023/04/22 03:38:06;;;;;;;8.10;5.40;;;;;;;11.73;74.77;99958.03;4132232;28;20046;-76
2023/04/22 03:40:12;;;;;;;11.13;5.07;;;;;;;11.70;74.82;99961.50;4123479;28;20122;-76
2023/04/22 03:42:16;;;;;;;8.32;4.78;;;;;;;11.62;75.30;99968.41;4115625;28;20525;-76
2023/04/22 03:44:19;;;;;;;8.07;5.40;;;;;;;11.64;74.91;99969.31;4100306;28;20134;-76
2023/04/22 03:46:23;;;;;;;7.75;5.65;;;;;;;11.63;74.64;99959.75;4100287;28;20074;-76
2023/04/22 03:48:45;;;;;;;9.20;5.35;;;;;;;11.53;74.83;99954.53;4100440;29;20450;-77
2023/04/22 03:50:58;;;;;;;7.30;4.88;;;;;;;11.50;75.27;99954.50;4123660;28;20038;-76
2023/04/22 03:53:05;;;;;;;8.82;5.70;;;;;;;11.49;74.86;99960.59;4117427;28;20053;-76
2023/04/22 03:55:09;;;;;;;7.30;5.57;;;;;;;11.48;74.83;99953.66;4119987;28;20043;-77
2023/04/22 03:57:12;;;;;;;10.75;5.43;;;;;;;11.46;74.64;99946.69;4106870;28;20138;-76
2023/04/22 03:59:15;;;;;;;9.63;5.97;;;;;;;11.41;75.27;99946.69;4123630;28;20133;-76
2023/04/22 04:01:18;;;;;;;10.90;5.53;;;;;;;11.38;75.30;99944.06;4118041;28;20049;-76
2023/04/22 04:03:25;;;;;;;9.10;5.10;;;;;;;11.38;75.59;99946.69;4138561;28;20058;-76
2023/04/22 04:05:33;;;;;;;8.68;4.88;;;;;;;11.36;75.45;99945.81;4144758;28;20144;-76
2023/04/22 04:07:37;;;;;;;7.93;5.00;;;;;;;11.35;75.29;99949.28;4120472;28;20390;-76
2023/04/22 04:09:41;;;;;;;7.68;4.95;;;;;;;11.36;75.20;99940.63;4145097;28;20046;-76
2023/04/22 04:11:44;;;;;;;10.75;5.55;;;;;;;11.30;75.10;99945.78;4116416;28;20516;-76
2023/04/22 04:13:48;;;;;;;6.40;4.50;;;;;;;11.27;74.74;99953.56;4106052;28;20050;-76
2023/04/22 04:16:09;;;;;;;9.45;4.57;;;;;;;11.25;75.42;99950.13;4126055;28;20043;-77
2023/04/22 04:18:15;;;;;;;7.22;4.90;;;;;;;11.21;74.75;99944.00;4132648;28;20042;-76
2023/04/22 04:20:18;;;;;;;7.50;5.03;;;;;;;11.23;74.81;99954.44;4135574;28;20051;-75
2023/04/22 04:22:22;;;;;;;10.52;5.15;;;;;;;11.23;74.99;99950.13;4122948;28;20062;-77
2023/04/22 04:24:31;;;;;;;8.45;4.40;;;;;;;11.22;74.67;99948.38;4142130;28;20560;-76
2023/04/22 04:26:41;;;;;;;10.18;5.25;;;;;;;11.20;74.74;99944.91;4094892;28;20047;-76
2023/04/22 04:28:49;;;;;;;9.10;5.43;;;;;;;11.20;75.57;99938.81;4102798;28;20043;-77
2023/04/22 04:30:53;;;;;;;7.30;5.30;;;;;;;11.23;75.33;99938.81;4120903;28;20049;-77
2023/04/22 04:32:57;;;;;;;7.93;5.50;;;;;;;11.20;75.28;99941.41;4137344;28;20503;-76
2023/04/22 04:35:02;;;;;;;7.13;4.78;;;;;;;11.14;74.80;99945.75;4122695;28;20121;-76
2023/04/22 04:37:05;;;;;;;7.97;4.10;;;;;;;11.12;74.85;99942.25;4122851;28;20085;-76
2023/04/22 04:39:27;;;;;;;6.07;4.72;;;;;;;11.12;74.95;99947.47;4125556;28;20057;-77
2023/04/22 04:41:32;;;;;;;17.33;4.10;;;;;;;11.14;75.32;99947.47;4130307;28;20046;-77
2023/04/22 04:43:37;;;;;;;9.82;5.03;;;;;;;11.14;75.04;99943.16;4114874;28;20512;-76
2023/04/22 04:45:53;;;;;;;6.47;4.07;;;;;;;11.11;74.90;99956.16;4137563;28;20044;-75
2023/04/22 04:48:02;;;;;;;8.18;4.60;;;;;;;11.10;75.78;99943.13;4107628;28;20051;-76
2023/04/22 04:50:11;;;;;;;8.20;4.32;;;;;;;11.11;75.44;99950.94;4122622;28;20042;-75
2023/04/22 04:52:14;;;;;;;6.50;4.70;;;;;;;11.12;74.99;99942.25;4103240;28;20071;-75
2023/04/22 04:54:17;;;;;;;7.10;4.53;;;;;;;11.12;75.04;99947.47;4122473;28;20038;-74
2023/04/22 04:56:20;;;;;;;6.38;3.85;;;;;;;11.12;75.82;99947.47;4103634;28;20130;-74
2023/04/22 04:58:24;;;;;;;6.35;4.40;;;;;;;11.16;75.13;99941.41;4122293;28;20131;-74
2023/04/22 05:00:42;;;;;;;6.18;4.45;;;;;;;11.21;75.56;99945.75;4138499;28;20054;-75
2023/04/22 05:02:45;;;;;;;6.90;4.07;;;;;;;11.17;75.23;99930.16;4114986;28;20515;-75
2023/04/22 05:04:48;;;;;;;5.47;4.00;;;;;;;11.22;75.22;99944.91;4121441;28;20389;-74
2023/04/22 05:06:52;;;;;;;7.63;4.00;;;;;;;11.26;75.68;99944.06;4122306;28;20082;-76
2023/04/22 05:08:55;;;;;;;5.53;4.20;;;;;;;11.28;75.06;99937.09;4122405;28;20045;-76
2023/04/22 05:10:58;;;;;;;6.75;4.05;;;;;;;11.29;75.70;99944.91;4104160;28;20078;-77
2023/04/22 05:13:01;;;;;;;5.85;3.60;;;;;;;11.32;75.80;99946.66;4105923;28;20078;-77
2023/04/22 05:15:07;;;;;;;6.55;4.25;;;;;;;11.32;75.35;99949.28;4122512;28;20488;-77
2023/04/22 05:17:13;;;;;;;4.75;3.20;;;;;;;11.35;75.63;99954.47;4095382;28;20043;-76
2023/04/22 05:19:16;;;;;;;;;;;;;;;11.32;75.56;99960.53;4129911;28;20049;-77
2023/04/22 05:21:21;;;;;;;4.88;3.20;;;;;;;11.32;75.86;99955.34;4120494;28;19988;-77
2023/04/22 05:23:24;;;;;;;9.60;4.50;;;;;;;11.37;75.10;99968.34;4104636;28;20035;-76
2023/04/22 05:25:30;;;;;;;7.07;3.97;;;;;;;11.35;75.51;99975.31;4125875;28;20045;-76
2023/04/22 05:27:38;;;;;;;4.75;3.50;;;;;;;11.34;75.54;99984.81;4114712;28;20121;-76
2023/04/22 05:29:42;;;;;;;6.60;4.07;;;;;;;11.40;75.35;99968.34;4099524;28;20039;-77
2023/04/22 05:31:46;;;;;;;6.47;4.47;;;;;;;11.46;75.18;99971.00;4106027;28;20090;-77
2023/04/22 05:33:51;;;;;;;7.00;4.10;;;;;;;11.46;75.28;99962.31;4121370;28;20046;-77
2023/04/22 05:35:55;;;;;;;6.57;3.90;;;;;;;11.50;75.01;99969.25;4128844;28;20046;-77
2023/04/22 05:37:58;;;;;;;7.18;3.75;;;;;;;11.49;75.22;99967.50;4100535;28;20070;-77
2023/04/22 05:40:01;;;;;;;7.68;4.03;;;;;;;11.53;75.49;99977.97;4122423;28;20496;-77
2023/04/22 05:42:05;;;;;;;5.25;3.90;;;;;;;11.55;75.00;99969.25;4119639;28;20464;-76
2023/04/22 05:44:09;;;;;;;5.80;3.95;;;;;;;11.53;75.65;99970.16;4115496;28;20042;-76
2023/04/22 05:46:12;;;;;;;4.43;3.30;;;;;;;11.56;75.69;99978.81;4122599;28;20043;-77
2023/04/22 05:48:19;;;;;;;7.05;4.40;;;;;;;11.57;75.57;99975.38;4130084;28;20125;-78
2023/04/22 05:50:33;;;;;;;6.25;4.05;;;;;;;11.55;75.45;99977.06;4121907;28;20046;-77
2023/04/22 05:52:42;;;;;;;4.97;3.53;;;;;;;11.56;75.14;99984.88;4097987;28;20039;-77
2023/04/22 05:54:49;;;;;;;6.90;3.70;;;;;;;11.58;74.86;99982.28;4137862;28;20096;-76
2023/04/22 05:56:52;;;;;;;4.20;3.45;;;;;;;11.59;74.76;99982.28;4137614;28;20042;-76
2023/04/22 05:58:55;;;;;;;5.55;3.67;;;;;;;11.61;75.14;99982.28;4115887;28;20093;-76
2023/04/22 06:00:59;;;;;;;5.70;3.42;;;;;;;11.61;74.70;99982.28;4117834;28;20039;-76
2023/04/22 06:03:21;;;;;;;6.47;4.07;;;;;;;11.65;74.52;99986.66;4135108;28;20045;-76
2023/04/22 06:05:24;;;;;;;4.30;3.03;;;;;;;11.72;74.52;99980.59;4128035;28;20034;-76
2023/04/22 06:07:28;;;;;;;6.88;3.65;;;;;;;11.80;74.28;99991.03;4121267;28;20068;-76
2023/04/22 06:09:33;;;;;;;5.57;3.65;;;;;;;11.83;74.75;99993.66;4132359;28;20497;-78
2023/04/22 06:11:36;;;;;;;4.55;3.40;;;;;;;11.83;73.93;99999.72;4108430;28;20047;-76
2023/04/22 06:13:38;;;;;;;5.93;3.60;;;;;;;11.83;73.92;99999.72;4111904;28;20051;-77
2023/04/22 06:15:42;;;;;;;4.93;3.60;;;;;;;11.97;73.96;99985.88;4109610;28;20039;-76
2023/04/22 06:17:45;;;;;;;5.13;3.63;;;;;;;12.10;73.06;99987.59;4114347;28;20130;-76
2023/04/22 06:19:48;;;;;;;6.63;3.63;;;;;;;12.16;73.16;99991.94;4135455;28;20074;-76
2023/04/22 06:21:51;;;;;;;3.65;2.95;;;;;;;12.21;73.60;99996.28;4130274;28;20053;-76
2023/04/22 06:23:55;;;;;;;4.15;3.20;;;;;;;12.28;73.01;99989.34;4113643;28;20051;-76
2023/04/22 06:26:00;;;;;;;6.10;3.67;;;;;;;12.40;72.46;99985.88;4114255;28;20043;-76
2023/04/22 06:28:03;;;;;;;;;;;;;;;12.50;72.43;99985.00;4116633;28;20039;-75
2023/04/22 06:30:10;;;;;;;;;;;;;;;12.55;72.56;99975.41;4128505;28;20376;-76
2023/04/22 06:32:14;;;;;;;5.22;3.83;;;;;;;12.77;72.91;99975.38;4128242;28;19978;-70
2023/04/22 06:34:17;;;;;;;5.30;3.83;;;;;;;12.78;72.40;99968.44;4111021;28;20501;-71
2023/04/22 06:36:20;;;;;;;5.90;4.15;;;;;;;12.82;72.18;99971.03;4110750;28;20070;-71
2023/04/22 06:38:28;;;;;;;8.25;3.85;;;;;;;12.86;72.27;99971.88;4113507;28;20584;-72
2023/04/22 06:40:59;;;;;;;6.10;4.20;;;;;;;12.92;72.41;99975.34;4123921;28;20054;-71
2023/04/22 06:43:07;;;;;;;7.25;5.00;;;;;;;12.89;72.46;99977.94;4133295;28;20046;-71
2023/04/22 06:45:36;;;;;;;5.82;3.90;;;;;;;12.92;72.76;99977.06;4109310;28;20050;-71
2023/04/22 06:47:54;;;;;;;6.88;3.90;;;;;;;12.90;72.63;99970.97;4114653;28;20095;-71
2023/04/22 06:50:03;;;;;;;4.82;3.65;;;;;;;12.96;72.41;99965.75;4123179;28;20042;-72
2023/04/22 06:52:32;;;;;;;6.38;4.30;;;;;;;13.09;72.37;99972.63;4132878;28;20074;-72
2023/04/22 06:54:35;;;;;;;6.63;4.07;;;;;;;13.19;71.25;99973.47;4123482;28;20034;-72
2023/04/22 06:56:39;;;;;;;7.25;5.28;;;;;;;13.36;70.82;99968.22;4122733;28;20125;-72
2023/04/22 06:58:42;;;;;;;6.68;4.50;;;;;;;13.47;70.92;99972.53;4117591;28;20049;-71
2023/04/22 07:00:45;;;;;;;10.80;5.03;;;;;;;13.50;70.44;99977.72;4125413;28;20404;-71
2023/04/22 07:02:48;;;;;;;6.80;4.35;;;;;;;13.56;70.15;99978.53;4121590;28;20062;-72
2023/04/22 07:04:51;;;;;;;7.97;4.75;;;;;;;13.55;69.54;99982.03;4136534;28;20404;-71
2023/04/22 07:06:54;;;;;;;7.88;4.57;;;;;;;13.56;69.99;99978.53;4141423;28;20121;-72
2023/04/22 07:08:57;;;;;;;7.35;4.78;;;;;;;13.60;70.41;99976.78;4122042;28;20046;-71
2023/04/22 07:11:00;;;;;;;9.75;5.35;;;;;;;13.67;70.70;99982.81;4104636;28;20063;-72
2023/04/22 07:13:11;;;;;;;7.22;4.70;;;;;;;13.72;70.46;99976.69;4115755;28;20077;-71
2023/04/22 07:15:14;;;;;;;9.00;5.00;;;;;;;13.75;70.30;99974.06;4137540;28;20066;-71
2023/04/22 07:17:18;;;;;;;7.93;4.78;;;;;;;13.85;70.29;99981.84;4133600;28;20137;-71
2023/04/22 07:19:21;;;;;;;6.78;4.78;;;;;;;13.85;70.19;99968.78;4133975;28;20065;-71
2023/04/22 07:21:24;;;;;;;11.05;5.22;;;;;;;14.02;69.69;99973.88;4133990;28;20053;-72
2023/04/22 07:23:26;;;;;;;8.52;4.93;;;;;;;14.07;68.87;99964.28;4132085;28;20113;-71
2023/04/22 07:25:29;;;;;;;6.60;4.63;;;;;;;14.07;69.28;99966.88;4133809;28;20415;-71
2023/04/22 07:27:32;;;;;;;6.50;4.22;;;;;;;14.10;68.19;99962.47;4133573;28;20483;-71
2023/04/22 07:29:38;;;;;;;6.13;4.22;;;;;;;14.15;67.83;99965.09;4116559;28;20137;-71
2023/04/22 07:31:41;;;;;;;7.38;4.28;;;;;;;14.24;67.15;99967.59;4116669;28;20035;-71
2023/04/22 07:33:45;;;;;;;8.05;4.53;;;;;;;14.31;67.11;99968.44;4115674;28;20142;-71
2023/04/22 07:35:48;;;;;;;5.65;4.43;;;;;;;14.26;66.49;99964.97;4116545;28;20043;-71
2023/04/22 07:37:51;;;;;;;7.93;4.60;;;;;;;14.29;66.64;99968.44;4148419;28;20447;-71
2023/04/22 07:39:54;;;;;;;7.15;3.53;;;;;;;14.39;67.13;99968.34;4116289;28;20042;-72
2023/04/22 07:41:57;;;;;;;5.53;3.70;;;;;;;14.55;66.62;99966.47;4133453;28;20093;-70
2023/04/22 07:44:00;;;;;;;6.07;4.60;;;;;;;14.62;65.97;99962.94;4132839;28;20562;-71
2023/04/22 07:46:04;;;;;;;6.47;3.90;;;;;;;14.65;65.54;99963.75;4133457;28;20129;-71
2023/04/22 07:48:07;;;;;;;5.63;4.00;;;;;;;14.68;66.77;99962.00;4116090;28;20133;-70
2023/04/22 07:50:11;;;;;;;7.97;4.45;;;;;;;14.72;66.31;99968.91;4133387;28;20446;-71
2023/04/22 07:52:14;;;;;;;4.97;3.60;;;;;;;14.77;65.96;99954.03;4132715;28;20045;-71
2023/04/22 07:54:16;;;;;;;4.20;3.10;;;;;;;14.83;65.01;99956.56;4133274;28;20073;-71
2023/04/22 07:56:19;;;;;;;8.68;4.20;;;;;;;14.93;64.09;99952.97;4133520;28;20495;-71
2023/04/22 07:58:22;;;;;;;7.32;3.75;;;;;;;15.13;63.35;99954.50;4133061;28;20030;-71
2023/04/22 08:00:25;;;;;;;7.13;4.13;;;;;;;15.30;62.46;99957.75;4133167;28;20049;-71
2023/04/22 08:02:29;;;;;;;7.53;4.18;;;;;;;15.32;61.93;99966.44;4122739;28;20046;-72
2023/04/22 08:04:32;;;;;;;6.43;3.83;;;;;;;15.38;62.32;99954.19;4084073;29;20590;-72
2023/04/22 08:06:35;;;;;;;5.45;3.72;;;;;;;15.48;61.44;99958.41;4117077;28;20386;-72
2023/04/22 08:08:38;;;;;;;5.53;3.67;;;;;;;15.47;61.78;99956.66;4116909;28;20049;-72
2023/04/22 08:10:41;;;;;;;5.25;3.90;;;;;;;15.49;61.76;99958.38;4117033;28;20481;-71
2023/04/22 08:12:44;;;;;;;6.70;4.50;;;;;;;15.53;61.34;99959.19;4099291;29;20039;-71
2023/04/22 08:14:47;;;;;;;6.43;3.88;;;;;;;15.63;61.62;99954.69;4099851;28;20437;-71
2023/04/22 08:16:52;;;;;;;9.32;3.90;;;;;;;15.75;63.39;99954.50;4116921;28;20095;-71
2023/04/22 08:18:57;;;;;;;4.35;3.40;;;;;;;15.80;62.74;99951.81;4116890;28;20073;-71
2023/04/22 08:20:59;;;;;;;;;;;;;;;15.78;62.56;99953.59;4100145;29;20097;-71
2023/04/22 08:23:02;;;;;;;9.68;4.63;;;;;;;15.75;61.95;99951.88;4116209;28;19922;-71
2023/04/22 08:25:07;;;;;;;6.28;4.28;;;;;;;15.78;61.85;99953.59;4117052;28;20448;-71
2023/04/22 08:27:10;;;;;;;;;;;;;;;15.76;62.38;99958.84;4116093;28;20038;-71
2023/04/22 08:29:13;;;;;;;5.63;3.92;;;;;;;15.79;61.90;99960.59;4116732;28;19922;-72
2023/04/22 08:31:16;;;;;;;6.13;4.10;;;;;;;15.96;61.12;99961.19;4116890;28;20042;-71
2023/04/22 08:33:19;;;;;;;4.32;3.30;;;;;;;15.96;61.06;99958.56;4116334;28;20054;-71
2023/04/22 08:35:23;;;;;;;6.50;3.38;;;;;;;16.01;62.00;99961.13;4099672;29;20090;-71
2023/04/22 08:37:27;;;;;;;5.55;4.22;;;;;;;15.99;61.08;99962.88;4099593;29;20477;-71
2023/04/22 08:39:30;;;;;;;;;;;;;;;16.01;60.35;99966.38;4116988;28;20122;-72
2023/04/22 08:41:34;;;;;;;6.15;4.07;;;;;;;15.97;60.04;99960.28;4116437;28;19976;-71
2023/04/22 08:43:37;;;;;;;6.85;3.65;;;;;;;16.01;60.85;99955.88;4082867;29;20497;-71
2023/04/22 08:45:40;;;;;;;7.43;3.42;;;;;;;16.10;60.86;99949.63;4116374;28;20046;-71
2023/04/22 08:47:43;;;;;;;6.35;3.55;;;;;;;16.13;60.24;99949.56;4116409;28;20074;-71
2023/04/22 08:49:46;;;;;;;6.55;4.43;;;;;;;16.46;59.71;99948.09;4099184;29;20118;-72
2023/04/22 08:51:51;;;;;;;5.65;3.35;;;;;;;16.66;59.56;99944.22;4116234;28;20051;-71
2023/04/22 08:53:54;;;;;;;7.60;4.00;;;;;;;16.83;59.21;99936.03;4115729;28;20046;-72
2023/04/22 08:55:58;;;;;;;7.32;4.10;;;;;;;16.97;58.95;99939.28;4116358;28;20047;-72
2023/04/22 08:58:02;;;;;;;6.30;4.47;;;;;;;17.35;56.46;99936.75;4116210;28;20087;-72
2023/04/22 09:00:07;;;;;;;5.57;3.42;;;;;;;17.26;56.92;99936.03;4116373;28;20039;-72
2023/04/22 09:02:16;;;;;;;5.70;4.10;;;;;;;17.20;56.39;99936.19;4123042;28;20054;-72
2023/04/22 09:04:19;;;;;;;7.25;3.90;;;;;;;17.31;57.20;99930.69;4132162;28;20088;-72
2023/04/22 09:06:23;;;;;;;7.53;4.38;;;;;;;17.30;56.23;99934.19;4132086;28;20133;-72
2023/04/22 09:08:27;;;;;;;5.25;3.63;;;;;;;17.20;55.99;99919.53;4132004;28;20492;-72
2023/04/22 09:10:31;;;;;;;5.45;4.13;;;;;;;17.18;56.78;99924.81;4129333;28;20504;-71
2023/04/22 09:12:37;;;;;;;6.40;4.07;;;;;;;17.15;56.28;99924.03;4134042;28;20049;-72
2023/04/22 09:14:40;;;;;;;6.95;4.00;;;;;;;17.12;56.95;99922.34;4132050;28;20042;-72
2023/04/22 09:16:47;;;;;;;5.70;3.20;;;;;;;17.04;56.62;99919.88;4127481;28;20054;-72
2023/04/22 09:18:50;;;;;;;6.47;3.75;;;;;;;17.09;57.45;99923.25;4119707;28;20052;-72
2023/04/22 09:20:55;;;;;;;7.35;3.03;;;;;;;17.15;58.06;99924.88;4136717;28;20400;-71
2023/04/22 09:23:03;;;;;;;5.88;3.72;;;;;;;17.22;56.56;99933.53;4130174;28;20046;-72
2023/04/22 09:25:16;;;;;;;5.40;3.50;;;;;;;17.30;55.91;99931.56;4135951;28;20045;-72
2023/04/22 09:27:20;;;;;;;6.00;3.38;;;;;;;17.50;55.87;99919.75;4122805;28;20054;-71
2023/04/22 09:29:29;;;;;;;5.55;3.50;;;;;;;17.65;55.88;99926.41;4120938;28;20042;-72
2023/04/22 09:31:32;;;;;;;5.18;3.50;;;;;;;17.83;55.29;99919.84;4120264;28;20089;-72
2023/04/22 09:33:38;;;;;;;5.72;3.60;;;;;;;17.95;54.81;99915.19;4140591;28;20125;-72
2023/04/22 09:35:43;;;;;;;4.97;3.50;;;;;;;18.12;53.97;99921.78;4129022;28;20070;-73
2023/04/22 09:37:51;;;;;;;5.00;3.45;;;;;;;18.25;54.11;99914.44;4135858;28;20034;-73
2023/04/22 09:39:54;;;;;;;5.88;3.70;;;;;;;18.22;53.61;99909.25;4130246;28;20066;-72
2023/04/22 09:41:58;;;;;;;6.05;3.95;;;;;;;18.13;53.92;99916.47;4130208;28;20053;-72
2023/04/22 09:44:03;;;;;;;4.50;3.30;;;;;;;18.06;54.51;99917.56;4112636;28;20047;-72
2023/04/22 09:46:06;;;;;;;4.82;3.83;;;;;;;18.06;53.98;99907.03;4132014;28;20489;-72
2023/04/22 09:48:10;;;;;;;5.47;3.53;;;;;;;18.02;53.97;99905.38;4114366;28;20061;-72